Time;durP1;ratioP1;P1;durP2;ratioP2;P2;SDS_P1;SDS_P2;PMS_P1;PMS_P2;Temp;Humidity;BMP_temperature;BMP_pressure;BME280_temperature;BME280_humidity;BME280_pressure;Samples;Min_cycle;Max_cycle;Signal;HPM_P1;HPM_P2
2021/12/18 09:41:37;;;;;;;15.65;6.93;;;8.00;99.90;;;;;;5091370;28;20366;-63
2021/12/18 09:44:03;;;;;;;15.10;6.97;;;8.00;99.90;;;;;;5080747;28;20048;-61
2021/12/18 09:46:30;;;;;;;19.23;7.90;;;8.00;99.90;;;;;;5067974;28;20052;-62
2021/12/18 09:48:57;;;;;;;17.02;8.30;;;8.00;99.90;;;;;;5052388;28;20092;-62
2021/12/18 09:51:27;;;;;;;15.13;7.95;;;8.10;99.90;;;;;;5053135;28;20034;-62
2021/12/18 09:53:53;;;;;;;17.42;7.72;;;8.00;99.90;;;;;;5059104;28;20049;-62
2021/12/18 09:56:19;;;;;;;14.00;6.70;;;8.10;99.90;;;;;;5058009;28;20084;-62
2021/12/18 09:58:45;;;;;;;12.63;5.43;;;8.10;99.90;;;;;;5060100;28;20040;-62
2021/12/18 10:01:11;;;;;;;7.80;4.85;;;8.10;99.90;;;;;;5060328;28;20468;-62
2021/12/18 10:03:55;;;;;;;11.43;5.95;;;8.10;99.90;;;;;;5057033;28;20045;-62
2021/12/18 10:06:40;;;;;;;10.00;5.20;;;8.10;99.90;;;;;;5064551;28;20044;-62
2021/12/18 10:09:10;;;;;;;11.60;4.80;;;8.10;99.90;;;;;;5069243;28;20135;-62
2021/12/18 10:11:44;;;;;;;9.48;4.22;;;8.10;99.90;;;;;;5041163;28;20485;-62
2021/12/18 10:14:09;;;;;;;9.23;4.15;;;8.10;99.90;;;;;;5054204;28;20052;-62
2021/12/18 10:16:45;;;;;;;6.18;3.40;;;8.10;99.90;;;;;;5059570;28;20041;-62
2021/12/18 10:19:29;;;;;;;9.23;3.60;;;8.10;99.90;;;;;;5056628;28;20049;-62
2021/12/18 10:22:01;;;;;;;6.85;3.20;;;8.10;99.90;;;;;;5063082;28;20048;-62
2021/12/18 10:24:28;;;;;;;6.90;2.35;;;8.10;99.90;;;;;;5070201;28;20067;-62
2021/12/18 10:26:53;;;;;;;3.50;1.88;;;8.10;99.90;;;;;;5069977;28;20091;-62
2021/12/18 10:29:35;;;;;;;4.40;1.73;;;8.10;99.90;;;;;;5069055;28;20080;-63
2021/12/18 10:32:08;;;;;;;5.70;1.83;;;8.10;99.90;;;;;;5069861;28;20052;-62
2021/12/18 10:34:35;;;;;;;3.97;2.20;;;8.10;99.90;;;;;;5069480;28;20052;-62
2021/12/18 10:37:23;;;;;;;4.90;2.20;;;8.10;99.90;;;;;;5070375;28;20147;-62
2021/12/18 10:39:54;;;;;;;5.32;2.10;;;8.10;99.90;;;;;;5055855;28;20114;-62
2021/12/18 10:42:33;;;;;;;5.63;2.50;;;8.10;99.90;;;;;;5053250;28;20053;-63
2021/12/18 10:45:12;;;;;;;4.88;2.80;;;8.10;99.90;;;;;;5067644;28;20059;-62
2021/12/18 10:47:44;;;;;;;6.05;3.13;;;8.10;99.90;;;;;;5044150;28;20118;-63
2021/12/18 10:50:20;;;;;;;6.47;3.03;;;8.10;99.90;;;;;;5049070;28;20084;-63
2021/12/18 10:53:01;;;;;;;7.33;3.33;;;8.10;99.90;;;;;;5036494;28;20045;-63
2021/12/18 10:55:36;;;;;;;6.32;3.55;;;8.10;99.90;;;;;;5036645;28;20826;-63
2021/12/18 10:58:07;;;;;;;9.38;3.60;;;8.10;99.90;;;;;;5033219;28;20088;-63
2021/12/18 11:00:46;;;;;;;9.18;3.83;;;8.10;99.90;;;;;;5036364;28;20072;-63
2021/12/18 11:03:23;;;;;;;10.40;4.43;;;8.10;99.90;;;;;;5038071;28;20052;-63
2021/12/18 11:06:14;;;;;;;10.43;4.40;;;8.10;99.90;;;;;;5044141;28;20408;-62
2021/12/18 11:09:05;;;;;;;10.50;4.70;;;8.20;99.90;;;;;;5046584;28;20044;-62
2021/12/18 11:14:31;;;;;;;10.63;5.25;;;8.30;99.90;;;;;;5053003;28;20053;-64
2021/12/18 11:16:59;;;;;;;10.15;5.45;;;8.30;99.90;;;;;;5054206;28;20049;-62
2021/12/18 11:19:28;;;;;;;16.50;5.10;;;8.30;99.90;;;;;;5055057;28;20068;-63
2021/12/18 11:21:56;;;;;;;11.65;5.10;;;8.30;99.90;;;;;;5055382;28;20127;-62
2021/12/18 11:24:34;;;;;;;10.25;4.88;;;8.30;99.90;;;;;;5041209;28;20401;-63
2021/12/18 11:27:01;;;;;;;9.90;5.00;;;8.40;99.90;;;;;;5048559;28;20077;-62
2021/12/18 11:29:31;;;;;;;10.27;4.88;;;8.40;99.90;;;;;;5033486;28;20049;-62
2021/12/18 11:31:58;;;;;;;10.20;4.88;;;8.40;99.90;;;;;;5034540;28;20072;-62
2021/12/18 11:34:25;;;;;;;11.75;4.68;;;8.40;99.90;;;;;;5035689;28;20489;-63
2021/12/18 11:36:51;;;;;;;12.45;4.82;;;8.40;99.90;;;;;;5034408;28;20045;-61
2021/12/18 11:39:20;;;;;;;14.18;4.88;;;8.40;99.90;;;;;;5034228;28;20111;-62
2021/12/18 11:41:49;;;;;;;10.95;4.78;;;8.50;99.90;;;;;;5035613;28;20076;-65
2021/12/18 11:44:29;;;;;;;12.73;6.25;;;8.50;99.90;;;;;;5052486;28;20080;-62
2021/12/18 11:46:56;;;;;;;9.35;5.10;;;8.50;99.90;;;;;;5054214;28;20114;-62
2021/12/18 11:49:25;;;;;;;13.13;5.10;;;8.50;99.90;;;;;;5054220;28;20045;-62
2021/12/18 11:52:03;;;;;;;10.20;4.68;;;8.60;99.90;;;;;;5053937;28;20045;-62
2021/12/18 11:54:39;;;;;;;16.20;4.82;;;8.50;99.90;;;;;;5055208;28;20048;-63
2021/12/18 11:57:05;;;;;;;8.75;3.17;;;8.60;99.90;;;;;;5054174;28;20051;-62
2021/12/18 11:59:44;;;;;;;6.18;2.58;;;8.60;99.90;;;;;;5054051;28;20049;-63
2021/12/18 12:02:11;;;;;;;8.73;2.80;;;8.60;99.90;;;;;;5054789;28;20396;-62
2021/12/18 12:05:05;;;;;;;8.43;2.58;;;8.60;99.90;;;;;;5052290;28;20049;-62
2021/12/18 12:07:31;;;;;;;6.28;2.38;;;8.60;99.90;;;;;;5054691;28;20064;-62
2021/12/18 12:11:03;;;;;;;9.45;2.72;;;8.60;99.90;;;;;;5054977;28;20041;-62
2021/12/18 12:13:09;;;;;;;7.55;2.50;;;8.60;99.90;;;;;;5045532;28;20085;-63
2021/12/18 12:15:49;;;;;;;8.95;2.70;;;8.60;99.90;;;;;;5054817;28;20106;-62
2021/12/18 12:18:15;;;;;;;10.13;2.83;;;8.60;99.90;;;;;;5053751;28;20053;-62
2021/12/18 12:20:50;;;;;;;9.73;2.80;;;8.60;99.90;;;;;;5054705;28;20041;-63
2021/12/18 12:23:16;;;;;;;11.18;3.00;;;8.70;99.90;;;;;;5053689;28;20080;-62
2021/12/18 12:25:51;;;;;;;8.05;3.05;;;8.60;99.90;;;;;;5053570;28;20150;-62
2021/12/18 12:28:24;;;;;;;5.55;2.80;;;8.60;99.90;;;;;;5053300;28;20053;-62
2021/12/18 12:31:10;;;;;;;8.48;2.67;;;8.60;99.90;;;;;;5055100;28;20047;-62
2021/12/18 12:33:37;;;;;;;12.15;2.80;;;8.60;99.90;;;;;;5055024;28;20086;-62
2021/12/18 12:36:29;;;;;;;9.30;3.00;;;8.60;99.90;;;;;;5054429;28;20095;-63
2021/12/18 12:39:01;;;;;;;10.02;2.67;;;8.60;99.90;;;;;;5054996;28;20052;-62
2021/12/18 12:41:32;;;;;;;9.38;2.80;;;8.70;99.90;;;;;;5054616;28;20049;-62
2021/12/18 12:44:15;;;;;;;9.57;3.00;;;8.70;99.90;;;;;;5053595;28;20060;-63
2021/12/18 12:46:42;;;;;;;5.63;2.22;;;8.60;99.90;;;;;;5053120;28;20052;-62
2021/12/18 12:49:19;;;;;;;7.40;2.13;;;8.70;99.90;;;;;;5053137;28;20267;-63
2021/12/18 12:51:58;;;;;;;6.60;1.77;;;8.60;99.90;;;;;;5053183;28;20060;-62
2021/12/18 12:54:42;;;;;;;9.10;2.08;;;8.70;99.90;;;;;;5054140;28;20060;-62
2021/12/18 12:57:38;;;;;;;5.82;1.90;;;8.70;99.90;;;;;;5054002;28;20060;-62
2021/12/18 13:00:06;;;;;;;4.07;2.00;;;8.60;99.90;;;;;;5053110;28;20457;-62
2021/12/18 13:02:36;;;;;;;6.50;2.63;;;8.60;99.90;;;;;;5054006;28;20100;-62
2021/12/18 13:05:08;;;;;;;9.40;4.82;;;8.70;99.90;;;;;;5052572;28;20049;-62
2021/12/18 13:07:34;;;;;;;8.68;3.70;;;8.70;99.90;;;;;;5054875;28;20096;-62
2021/12/18 13:10:00;;;;;;;8.40;4.22;;;8.70;99.90;;;;;;5053378;28;20462;-62
2021/12/18 13:12:26;;;;;;;;;;;8.70;99.90;;;;;;5052817;28;20490;-62
2021/12/18 13:14:54;;;;;;;9.20;4.70;;;8.60;99.90;;;;;;5053347;28;19928;-63
2021/12/18 13:17:20;;;;;;;7.90;5.07;;;8.60;99.90;;;;;;5053629;28;20068;-62
2021/12/18 13:19:57;;;;;;;10.25;4.07;;;8.50;99.90;;;;;;5052670;28;20473;-63
2021/12/18 13:22:29;;;;;;;8.93;3.30;;;8.60;99.90;;;;;;5053662;28;20134;-62
2021/12/18 13:25:04;;;;;;;8.93;3.47;;;8.60;99.90;;;;;;5052609;28;20055;-62
2021/12/18 13:27:31;;;;;;;8.90;3.40;;;8.60;99.90;;;;;;5052555;28;20059;-62
2021/12/18 13:30:09;;;;;;;10.85;3.28;;;8.50;99.90;;;;;;5053544;28;20485;-62
2021/12/18 13:32:35;;;;;;;9.60;4.15;;;8.60;99.90;;;;;;5052395;28;20060;-62
2021/12/18 13:35:01;;;;;;;11.55;4.97;;;8.60;99.90;;;;;;5052434;28;20057;-62
2021/12/18 13:37:26;;;;;;;9.45;4.65;;;8.50;99.90;;;;;;5053454;28;20367;-62
2021/12/18 13:39:53;;;;;;;9.75;4.78;;;8.50;99.90;;;;;;5052181;28;20052;-62
2021/12/18 13:42:23;;;;;;;11.98;4.15;;;8.50;99.90;;;;;;5052373;28;20477;-63
2021/12/18 13:44:50;;;;;;;8.10;4.30;;;8.50;99.90;;;;;;5053379;28;20440;-63
2021/12/18 13:47:33;;;;;;;8.15;3.80;;;8.50;99.90;;;;;;5052374;28;20049;-62
2021/12/18 13:50:19;;;;;;;7.50;3.58;;;8.50;99.90;;;;;;5052737;28;20407;-63
2021/12/18 13:52:57;;;;;;;7.55;3.05;;;8.40;99.90;;;;;;5053103;28;20492;-62
2021/12/18 13:55:28;;;;;;;13.40;4.50;;;8.40;99.90;;;;;;5053711;28;20045;-62
2021/12/18 13:58:13;;;;;;;7.38;3.20;;;8.50;99.90;;;;;;5053264;28;20052;-62
2021/12/18 14:00:44;;;;;;;8.00;3.65;;;8.40;99.90;;;;;;5052695;28;20408;-63
2021/12/18 14:03:27;;;;;;;8.63;3.05;;;8.40;99.90;;;;;;5053256;28;20071;-63
2021/12/18 14:05:57;;;;;;;8.93;3.60;;;8.40;99.90;;;;;;5052203;28;20048;-62
2021/12/18 14:08:24;;;;;;;7.03;3.45;;;8.40;99.90;;;;;;5052197;28;20064;-62
2021/12/18 14:10:50;;;;;;;9.43;3.47;;;8.40;99.90;;;;;;5052188;28;20048;-63
2021/12/18 14:13:16;;;;;;;9.38;4.03;;;8.40;99.90;;;;;;5052863;28;20485;-62
2021/12/18 14:15:42;;;;;;;8.50;3.78;;;8.40;99.90;;;;;;5052156;28;20060;-62
2021/12/18 14:18:27;;;;;;;9.50;3.92;;;8.50;99.90;;;;;;5051854;28;20060;-62
2021/12/18 14:20:53;;;;;;;8.43;3.90;;;8.40;99.90;;;;;;5051770;28;20068;-62
2021/12/18 14:23:18;;;;;;;9.43;3.58;;;8.30;99.90;;;;;;5053065;28;20130;-63
2021/12/18 14:25:44;;;;;;;7.82;3.70;;;8.30;99.90;;;;;;5051969;28;20057;-62
2021/12/18 14:28:19;;;;;;;8.75;3.90;;;8.30;99.90;;;;;;5055988;28;20064;-62
2021/12/18 14:30:46;;;;;;;7.38;3.47;;;8.30;99.90;;;;;;5056676;28;20118;-62
2021/12/18 14:33:17;;;;;;;7.53;3.50;;;8.20;99.90;;;;;;5039573;28;20084;-62
2021/12/18 14:35:53;;;;;;;7.32;3.13;;;8.30;99.90;;;;;;5056334;28;20388;-62
2021/12/18 14:38:21;;;;;;;7.78;3.30;;;8.20;99.90;;;;;;5056439;28;20049;-63
2021/12/18 14:40:58;;;;;;;7.10;3.47;;;8.20;99.90;;;;;;5056158;28;20064;-62
2021/12/18 14:43:25;;;;;;;7.63;2.17;;;8.20;99.90;;;;;;5055855;28;20057;-62
2021/12/18 14:45:51;;;;;;;8.85;2.85;;;8.20;99.90;;;;;;5057327;28;20500;-62
2021/12/18 14:48:27;;;;;;;;;;;8.20;99.90;;;;;;5055779;28;20428;-61
2021/12/18 14:50:53;;;;;;;7.10;2.97;;;8.20;99.90;;;;;;5055142;28;19927;-61
2021/12/18 14:53:23;;;;;;;9.98;3.13;;;8.20;99.90;;;;;;5055345;28;20053;-63
2021/12/18 14:55:55;;;;;;;8.20;4.10;;;8.20;99.90;;;;;;5055241;28;20080;-62
2021/12/18 14:58:37;;;;;;;11.07;4.10;;;8.20;99.90;;;;;;5055124;28;20048;-62
2021/12/18 15:01:02;;;;;;;8.73;4.07;;;8.20;99.90;;;;;;5055089;28;20049;-64
2021/12/18 15:03:38;;;;;;;8.52;4.60;;;8.20;99.90;;;;;;5055174;28;20056;-62
2021/12/18 15:06:19;;;;;;;6.78;4.18;;;8.10;99.90;;;;;;5055426;28;20107;-61
2021/12/18 15:08:54;;;;;;;12.68;5.18;;;8.10;99.90;;;;;;5054964;28;20080;-61
2021/12/18 15:11:46;;;;;;;9.60;4.82;;;8.10;99.90;;;;;;5055994;28;20385;-61
2021/12/18 15:14:20;;;;;;;8.70;4.82;;;8.10;99.90;;;;;;5055199;28;20062;-61
2021/12/18 15:16:48;;;;;;;9.98;5.40;;;8.10;99.90;;;;;;5055911;28;20048;-62
2021/12/18 15:19:22;;;;;;;11.15;5.50;;;8.10;99.90;;;;;;5054879;28;20060;-62
2021/12/18 15:21:53;;;;;;;10.27;5.57;;;8.10;99.90;;;;;;5055746;28;20057;-64
2021/12/18 15:24:19;;;;;;;10.98;5.38;;;8.10;99.90;;;;;;5056161;28;20052;-62
2021/12/18 15:26:47;;;;;;;15.68;5.70;;;8.10;99.90;;;;;;5054565;28;20134;-63
2021/12/18 15:29:15;;;;;;;9.15;4.90;;;8.00;99.90;;;;;;5054875;28;20049;-62
2021/12/18 15:31:42;;;;;;;9.10;5.43;;;8.10;99.90;;;;;;5054604;28;20056;-62
2021/12/18 15:34:10;;;;;;;11.13;5.57;;;8.10;99.90;;;;;;5055016;28;20056;-63
2021/12/18 15:36:41;;;;;;;9.32;4.93;;;8.10;99.90;;;;;;5054430;28;20060;-62
2021/12/18 15:39:08;;;;;;;8.25;5.03;;;8.00;99.90;;;;;;5054264;28;20052;-62
2021/12/18 15:41:35;;;;;;;7.82;4.05;;;8.00;99.90;;;;;;5055609;28;20064;-62
2021/12/18 15:44:02;;;;;;;5.93;4.32;;;7.90;99.90;;;;;;5055448;28;20114;-62
2021/12/18 15:46:29;;;;;;;8.90;4.22;;;7.90;99.90;;;;;;5054248;28;20144;-62
2021/12/18 15:48:55;;;;;;;11.20;6.30;;;7.80;99.90;;;;;;5055277;28;20052;-62
2021/12/18 15:51:21;;;;;;;7.65;4.68;;;7.80;99.90;;;;;;5055341;28;20037;-62
2021/12/18 15:53:48;;;;;;;8.13;4.40;;;7.80;99.90;;;;;;5054096;28;20048;-62
2021/12/18 15:56:15;;;;;;;7.05;4.22;;;7.80;99.90;;;;;;5054455;28;20048;-62
2021/12/18 15:58:43;;;;;;;6.90;4.40;;;7.80;99.90;;;;;;5054719;28;20081;-63
2021/12/18 16:01:09;;;;;;;6.88;4.18;;;7.80;99.90;;;;;;5051584;28;20101;-63
2021/12/18 16:03:35;;;;;;;7.57;4.30;;;7.70;99.90;;;;;;5043013;28;20037;-63
2021/12/18 16:06:02;;;;;;;;;;;7.60;99.90;;;;;;5040805;28;20067;-63
2021/12/18 16:08:28;;;;;;;9.15;5.45;;;7.60;99.90;;;;;;5039795;28;20011;-66
2021/12/18 16:10:53;;;;;;;10.68;5.00;;;7.60;99.90;;;;;;5043814;28;20045;-63
2021/12/18 16:13:19;;;;;;;6.95;4.03;;;7.60;99.90;;;;;;5043737;28;20099;-64
2021/12/18 16:15:45;;;;;;;7.13;4.32;;;7.50;99.90;;;;;;5040010;28;20037;-63
2021/12/18 16:18:11;;;;;;;7.07;3.50;;;7.50;99.90;;;;;;5045182;28;20499;-63
2021/12/18 16:20:37;;;;;;;7.07;4.13;;;7.50;99.90;;;;;;5043255;28;20045;-63
2021/12/18 16:23:03;;;;;;;4.88;3.30;;;7.50;99.90;;;;;;5042055;28;20045;-63
2021/12/18 16:25:29;;;;;;;;;;;7.50;99.90;;;;;;5043750;28;20081;-64
2021/12/18 16:27:57;;;;;;;7.20;3.45;;;7.40;99.90;;;;;;5042181;28;19956;-63
2021/12/18 16:30:23;;;;;;;6.32;3.30;;;7.50;99.90;;;;;;5043824;28;20037;-63
2021/12/18 16:32:48;;;;;;;;;;;7.50;99.90;;;;;;5048087;28;20061;-63
2021/12/18 16:35:14;;;;;;;6.05;3.53;;;7.40;99.90;;;;;;5053463;28;20030;-64
2021/12/18 16:37:44;;;;;;;5.75;3.40;;;7.40;99.90;;;;;;5053320;28;20049;-64
2021/12/18 16:40:11;;;;;;;6.40;3.40;;;7.40;99.90;;;;;;5054041;28;20106;-62
2021/12/18 16:42:36;;;;;;;6.18;3.42;;;7.40;99.90;;;;;;5053349;28;20092;-63
2021/12/18 16:45:06;;;;;;;7.43;4.10;;;7.40;99.90;;;;;;5053051;28;20084;-63
2021/12/18 16:47:32;;;;;;;8.45;4.70;;;7.40;99.90;;;;;;5054413;28;20057;-63
2021/12/18 16:49:58;;;;;;;7.18;4.40;;;7.40;99.90;;;;;;5052670;28;20445;-64
2021/12/18 16:52:25;;;;;;;8.93;4.75;;;7.40;99.90;;;;;;5054134;28;20084;-63
2021/12/18 16:54:52;;;;;;;8.63;4.22;;;7.40;99.90;;;;;;5053058;28;20453;-63
2021/12/18 16:57:20;;;;;;;8.85;4.20;;;7.30;99.90;;;;;;5053796;28;20123;-64
2021/12/18 16:59:46;;;;;;;10.63;4.68;;;7.40;99.90;;;;;;5053721;28;20072;-62
2021/12/18 17:02:12;;;;;;;;;;;7.40;99.90;;;;;;5054226;28;20110;-62
2021/12/18 17:04:37;;;;;;;9.90;4.97;;;7.30;99.90;;;;;;5053275;28;19924;-62
2021/12/18 17:07:03;;;;;;;10.38;5.38;;;7.30;99.90;;;;;;5053092;28;20049;-62
2021/12/18 17:09:29;;;;;;;8.55;5.25;;;7.20;99.90;;;;;;5053143;28;20068;-62
2021/12/18 17:11:55;;;;;;;9.23;5.20;;;7.20;99.90;;;;;;5052872;28;20370;-63
2021/12/18 17:14:20;;;;;;;10.68;6.07;;;7.10;99.90;;;;;;5052757;28;20374;-64
2021/12/18 17:16:46;;;;;;;13.23;6.30;;;7.20;99.90;;;;;;5053753;28;20055;-64
2021/12/18 17:19:14;;;;;;;17.33;6.80;;;7.10;99.90;;;;;;5053709;28;20378;-64
2021/12/18 17:21:40;;;;;;;18.48;7.30;;;7.00;99.90;;;;;;5053080;28;20111;-64
2021/12/18 17:24:06;;;;;;;22.65;8.20;;;7.10;99.90;;;;;;5053563;28;20045;-63
2021/12/18 17:26:33;;;;;;;16.38;7.55;;;7.10;99.90;;;;;;5052641;28;20127;-65
2021/12/18 17:28:59;;;;;;;17.98;9.25;;;7.00;99.90;;;;;;5053238;28;20516;-64
2021/12/18 17:31:25;;;;;;;15.07;7.72;;;7.00;99.90;;;;;;5053695;28;20087;-63
2021/12/18 17:33:52;;;;;;;9.93;5.65;;;7.00;99.90;;;;;;5053312;28;20052;-63
2021/12/18 17:36:33;;;;;;;6.43;4.05;;;7.00;99.90;;;;;;5052463;28;20080;-64
2021/12/18 17:39:01;;;;;;;7.95;4.95;;;6.90;99.90;;;;;;5053046;28;20063;-64
2021/12/18 17:41:30;;;;;;;8.52;4.90;;;6.80;99.90;;;;;;5051331;28;20071;-61
2021/12/18 17:43:56;;;;;;;9.15;5.38;;;6.90;99.90;;;;;;5052329;28;20057;-63
2021/12/18 17:46:23;;;;;;;;;;;6.90;99.90;;;;;;5052881;28;20049;-63
2021/12/18 17:48:49;;;;;;;13.05;6.88;;;6.80;99.90;;;;;;5053302;28;19978;-65
2021/12/18 17:51:15;;;;;;;;;;;6.80;99.90;;;;;;5046489;28;20091;-62
2021/12/18 17:53:41;;;;;;;8.98;5.28;;;6.80;99.90;;;;;;5035230;28;19965;-63
2021/12/18 17:56:07;;;;;;;11.45;6.00;;;6.90;99.90;;;;;;5040248;28;20413;-64
2021/12/18 17:58:33;;;;;;;13.95;7.90;;;6.80;99.90;;;;;;5037060;28;20120;-63
2021/12/18 18:01:00;;;;;;;17.70;9.15;;;6.80;99.90;;;;;;5041879;28;20144;-64
2021/12/18 18:03:26;;;;;;;;;;;6.80;99.90;;;;;;5046659;28;20052;-62
2021/12/18 18:05:52;;;;;;;10.63;5.97;;;6.80;99.90;;;;;;5045727;28;19970;-63
2021/12/18 18:08:20;;;;;;;13.50;6.60;;;6.80;99.90;;;;;;5036876;28;20492;-63
2021/12/18 18:10:47;;;;;;;13.77;7.45;;;6.80;99.90;;;;;;5035359;28;20050;-63
2021/12/18 18:13:16;;;;;;;10.40;6.22;;;6.80;99.90;;;;;;5039828;28;20048;-64
2021/12/18 18:15:42;;;;;;;11.02;6.22;;;6.80;99.90;;;;;;5035103;28;20045;-62
2021/12/18 18:18:08;;;;;;;10.93;6.22;;;6.80;99.90;;;;;;5035591;28;20056;-64
2021/12/18 18:20:34;;;;;;;;;;;6.70;99.90;;;;;;5034543;28;20393;-64
2021/12/18 18:23:00;;;;;;;14.48;7.15;;;6.70;99.90;;;;;;5035736;28;20015;-64
2021/12/18 18:25:27;;;;;;;12.55;7.30;;;6.70;99.90;;;;;;5036644;28;20037;-63
2021/12/18 18:27:54;;;;;;;15.93;7.88;;;6.70;99.90;;;;;;5035395;28;20049;-63
2021/12/18 18:30:20;;;;;;;;;;;6.80;99.90;;;;;;5036838;28;20038;-64
2021/12/18 18:32:46;;;;;;;11.43;6.57;;;6.80;99.90;;;;;;5044691;28;19982;-62
2021/12/18 18:35:13;;;;;;;10.52;6.53;;;6.70;99.90;;;;;;5051562;28;20041;-64
2021/12/18 18:37:39;;;;;;;12.07;6.40;;;6.70;99.90;;;;;;5034149;28;20128;-64
2021/12/18 18:40:05;;;;;;;;;;;6.70;99.90;;;;;;5036355;28;20101;-63
2021/12/18 18:42:31;;;;;;;9.73;6.00;;;6.70;99.90;;;;;;5035250;28;19920;-63
2021/12/18 18:45:01;;;;;;;10.68;5.68;;;6.70;99.90;;;;;;5035273;28;20397;-62
2021/12/18 18:47:34;;;;;;;9.50;5.90;;;6.70;99.90;;;;;;5035068;28;20056;-62
2021/12/18 18:50:00;;;;;;;12.30;6.45;;;6.70;99.90;;;;;;5036196;28;20121;-64
2021/12/18 18:52:26;;;;;;;11.90;6.40;;;6.80;99.90;;;;;;5044255;28;20127;-63
2021/12/18 18:54:52;;;;;;;11.02;6.55;;;6.70;99.90;;;;;;5055283;28;20049;-62
2021/12/18 18:57:18;;;;;;;11.30;6.22;;;6.70;99.90;;;;;;5050607;28;20080;-63
2021/12/18 18:59:44;;;;;;;15.90;6.85;;;6.70;99.90;;;;;;5044102;28;20045;-63
2021/12/18 19:02:12;;;;;;;12.23;6.82;;;6.80;99.90;;;;;;5043135;28;20465;-63
2021/12/18 19:04:40;;;;;;;14.52;7.15;;;6.70;99.90;;;;;;5036370;28;20045;-63
2021/12/18 19:07:06;;;;;;;13.43;6.88;;;6.80;99.90;;;;;;5040350;28;20183;-63
2021/12/18 19:09:33;;;;;;;12.95;6.80;;;6.70;99.90;;;;;;5044199;28;20132;-63
2021/12/18 19:11:59;;;;;;;12.75;7.00;;;6.80;99.90;;;;;;5044106;28;20478;-62
2021/12/18 19:14:25;;;;;;;13.05;6.60;;;6.80;99.90;;;;;;5035896;28;20516;-63
2021/12/18 19:16:51;;;;;;;14.88;7.43;;;6.80;99.90;;;;;;5035860;28;20050;-63
2021/12/18 19:19:36;;;;;;;13.40;7.35;;;6.80;99.90;;;;;;5036070;28;20052;-63
2021/12/18 19:22:04;;;;;;;14.02;7.55;;;6.80;99.90;;;;;;5036003;28;20045;-64
2021/12/18 19:24:30;;;;;;;15.77;7.78;;;6.80;99.90;;;;;;5034827;28;20092;-64
2021/12/18 19:26:56;;;;;;;11.00;7.15;;;6.80;99.90;;;;;;5034787;28;20093;-63
2021/12/18 19:29:22;;;;;;;11.30;6.95;;;6.90;99.90;;;;;;5042524;28;20045;-63
2021/12/18 19:31:47;;;;;;;13.70;7.43;;;6.90;99.90;;;;;;5046051;28;20045;-65
2021/12/18 19:34:13;;;;;;;11.38;6.55;;;6.80;99.90;;;;;;5044968;28;20041;-63
2021/12/18 19:36:41;;;;;;;11.88;6.30;;;6.90;99.90;;;;;;5051705;28;20056;-64
2021/12/18 19:39:07;;;;;;;10.30;5.68;;;6.80;99.90;;;;;;5054616;28;20359;-63
2021/12/18 19:41:33;;;;;;;9.80;5.75;;;6.90;99.90;;;;;;5042799;28;20103;-64
2021/12/18 19:43:59;;;;;;;9.88;6.10;;;6.90;99.90;;;;;;5034609;28;20063;-64
2021/12/18 19:46:24;;;;;;;11.68;6.88;;;6.90;99.90;;;;;;5035866;28;20040;-64
2021/12/18 19:48:51;;;;;;;15.55;10.30;;;6.80;99.90;;;;;;5044554;28;20080;-63
2021/12/18 19:51:19;;;;;;;13.32;7.68;;;6.90;99.90;;;;;;5043903;28;20064;-63
2021/12/18 19:53:46;;;;;;;12.50;6.95;;;6.90;99.90;;;;;;5044859;28;20493;-63
2021/12/18 19:56:14;;;;;;;12.38;7.28;;;6.90;99.90;;;;;;5045839;28;20033;-64
2021/12/18 19:58:41;;;;;;;11.30;6.97;;;6.90;99.90;;;;;;5043996;28;20056;-63
2021/12/18 20:01:07;;;;;;;10.10;6.82;;;6.90;99.90;;;;;;5044375;28;20080;-63
2021/12/18 20:06:18;;;;;;;10.15;6.22;;;6.90;99.90;;;;;;5056830;28;20505;-64
2021/12/18 20:08:44;;;;;;;10.85;5.97;;;6.90;99.90;;;;;;5043740;28;20033;-62
2021/12/18 20:11:10;;;;;;;8.43;5.13;;;7.00;99.90;;;;;;5043989;28;20128;-63
2021/12/18 20:13:35;;;;;;;;;;;7.00;99.90;;;;;;5042736;28;20050;-63
2021/12/18 20:16:02;;;;;;;11.63;6.35;;;7.00;99.90;;;;;;5043888;28;19920;-63
2021/12/18 20:18:28;;;;;;;12.32;6.93;;;7.00;99.90;;;;;;5044732;28;20077;-63
2021/12/18 20:20:54;;;;;;;11.27;6.88;;;7.00;99.90;;;;;;5041960;28;20150;-62
2021/12/18 20:23:20;;;;;;;13.13;9.75;;;7.00;99.90;;;;;;5044115;28;20043;-62
2021/12/18 20:25:46;;;;;;;14.52;7.65;;;7.00;99.90;;;;;;5043654;28;20397;-63
2021/12/18 20:29:12;;;;;;;12.73;7.55;;;7.00;99.90;;;;;;5042490;28;20048;-63
2021/12/18 20:31:37;;;;;;;16.98;8.00;;;7.00;99.90;;;;;;5031816;28;20203;-63
2021/12/18 20:34:03;;;;;;;12.93;8.38;;;7.00;99.90;;;;;;5043013;28;20429;-63
2021/12/18 20:36:29;;;;;;;19.67;8.40;;;7.00;99.90;;;;;;5044715;28;20513;-63
2021/12/18 20:38:56;;;;;;;16.67;9.05;;;7.00;99.90;;;;;;5042898;28;20117;-63
2021/12/18 20:41:22;;;;;;;16.90;9.30;;;7.10;99.90;;;;;;5044367;28;20057;-63
2021/12/18 20:43:55;;;;;;;20.77;9.30;;;7.00;99.90;;;;;;5044312;28;20453;-63
2021/12/18 20:46:21;;;;;;;20.00;10.10;;;7.00;99.90;;;;;;5039953;28;20053;-63
2021/12/18 20:48:47;;;;;;;18.88;10.25;;;7.00;99.90;;;;;;5043553;28;20063;-62
2021/12/18 20:51:12;;;;;;;17.92;9.98;;;7.00;99.90;;;;;;5043859;28;20489;-63
2021/12/18 20:53:40;;;;;;;17.60;9.45;;;7.10;99.90;;;;;;5040369;28;20134;-63
2021/12/18 20:56:06;;;;;;;18.85;8.30;;;7.10;99.90;;;;;;5043661;28;20048;-63
2021/12/18 20:58:33;;;;;;;14.35;8.60;;;7.10;99.90;;;;;;5044568;28;20134;-63
2021/12/18 21:01:06;;;;;;;16.75;8.50;;;7.10;99.90;;;;;;5055694;28;20053;-63
2021/12/18 21:03:33;;;;;;;12.10;7.80;;;7.10;99.90;;;;;;5042781;28;20056;-63
2021/12/18 21:05:59;;;;;;;12.88;7.47;;;7.10;99.90;;;;;;5038940;28;20089;-63
2021/12/18 21:08:26;;;;;;;;;;;7.00;99.90;;;;;;5043986;28;20078;-61
2021/12/18 21:10:53;;;;;;;;;;;7.10;99.90;;;;;;5044950;28;19956;-61
2021/12/18 21:13:20;;;;;;;14.25;9.00;;;7.10;99.90;;;;;;5042578;28;19929;-63
2021/12/18 21:15:48;;;;;;;19.42;10.00;;;7.20;99.90;;;;;;5042530;28;20045;-62
2021/12/18 21:18:18;;;;;;;21.05;10.18;;;7.10;99.90;;;;;;5043247;28;20057;-62
2021/12/18 21:20:44;;;;;;;13.57;8.65;;;7.20;99.90;;;;;;5045902;28;20077;-62
2021/12/18 21:23:10;;;;;;;13.27;8.07;;;7.10;99.90;;;;;;5052439;28;20080;-62
